Aviation Digital Data Service (ADDS)

Output produced by TAFs form (0903 UTC 20 October 2017)
found at http://www.aviationweather.gov/adds/tafs/
 
KAND 200900Z AUTO 00000KT 1 1/4SM BR OVC001 07/07 A3024 RMK AO2 T00720067
KAND 200849Z 2009/2106 VRB03KT P6SM SKC 
     TEMPO 2009/2012 1SM BR BKN001